sensor_id;sensor_type;location;lat;lon;timestamp;P1;durP1;ratioP1;P2;durP2;ratioP2
62332;SDS011;48624;49.812;8.562;2023-05-10T00:01:41;401.05;;;386.88;;
62332;SDS011;48624;49.812;8.562;2023-05-10T00:04:07;398.67;;;384.58;;
62332;SDS011;48624;49.812;8.562;2023-05-10T00:06:32;402.73;;;388.52;;
62332;SDS011;48624;49.812;8.562;2023-05-10T00:08:58;388.38;;;374.65;;
62332;SDS011;48624;49.812;8.562;2023-05-10T00:11:23;399.15;;;384.60;;
62332;SDS011;48624;49.812;8.562;2023-05-10T00:13:49;446.90;;;430.38;;
62332;SDS011;48624;49.812;8.562;2023-05-10T00:16:15;427.52;;;411.98;;
62332;SDS011;48624;49.812;8.562;2023-05-10T00:18:40;437.60;;;421.48;;
62332;SDS011;48624;49.812;8.562;2023-05-10T00:21:05;447.98;;;431.30;;
62332;SDS011;48624;49.812;8.562;2023-05-10T00:23:31;429.00;;;413.35;;
62332;SDS011;48624;49.812;8.562;2023-05-10T00:25:56;431.55;;;415.70;;
62332;SDS011;48624;49.812;8.562;2023-05-10T00:28:22;413.65;;;398.52;;
62332;SDS011;48624;49.812;8.562;2023-05-10T00:30:47;409.35;;;394.35;;
62332;SDS011;48624;49.812;8.562;2023-05-10T00:33:13;393.70;;;379.60;;
62332;SDS011;48624;49.812;8.562;2023-05-10T00:35:39;398.85;;;384.27;;
62332;SDS011;48624;49.812;8.562;2023-05-10T00:38:04;388.42;;;374.80;;
62332;SDS011;48624;49.812;8.562;2023-05-10T00:40:30;390.02;;;376.17;;
62332;SDS011;48624;49.812;8.562;2023-05-10T00:42:57;440.00;;;423.40;;
62332;SDS011;48624;49.812;8.562;2023-05-10T00:45:24;399.65;;;385.35;;
62332;SDS011;48624;49.812;8.562;2023-05-10T00:47:50;401.80;;;387.27;;
62332;SDS011;48624;49.812;8.562;2023-05-10T00:50:20;385.75;;;372.05;;
62332;SDS011;48624;49.812;8.562;2023-05-10T00:52:46;391.08;;;377.20;;
62332;SDS011;48624;49.812;8.562;2023-05-10T00:55:12;377.23;;;363.60;;
62332;SDS011;48624;49.812;8.562;2023-05-10T00:57:38;387.33;;;373.65;;
62332;SDS011;48624;49.812;8.562;2023-05-10T01:00:04;395.55;;;381.48;;
62332;SDS011;48624;49.812;8.562;2023-05-10T01:02:30;398.70;;;383.92;;
62332;SDS011;48624;49.812;8.562;2023-05-10T01:04:55;387.63;;;373.95;;
62332;SDS011;48624;49.812;8.562;2023-05-10T01:07:20;408.23;;;392.77;;
62332;SDS011;48624;49.812;8.562;2023-05-10T01:09:46;388.23;;;374.48;;
62332;SDS011;48624;49.812;8.562;2023-05-10T01:12:13;384.48;;;370.98;;
62332;SDS011;48624;49.812;8.562;2023-05-10T01:14:38;387.33;;;373.27;;
62332;SDS011;48624;49.812;8.562;2023-05-10T01:17:04;393.23;;;379.33;;
62332;SDS011;48624;49.812;8.562;2023-05-10T01:19:31;388.77;;;374.50;;
62332;SDS011;48624;49.812;8.562;2023-05-10T01:24:55;385.63;;;371.73;;
62332;SDS011;48624;49.812;8.562;2023-05-10T01:38:18;413.35;;;398.38;;
62332;SDS011;48624;49.812;8.562;2023-05-10T01:46:40;399.13;;;384.80;;
62332;SDS011;48624;49.812;8.562;2023-05-10T01:49:07;390.63;;;376.40;;
62332;SDS011;48624;49.812;8.562;2023-05-10T01:51:41;395.42;;;381.23;;
62332;SDS011;48624;49.812;8.562;2023-05-10T01:54:09;394.13;;;379.75;;
62332;SDS011;48624;49.812;8.562;2023-05-10T01:56:37;390.90;;;376.60;;
62332;SDS011;48624;49.812;8.562;2023-05-10T01:59:05;373.75;;;360.40;;
62332;SDS011;48624;49.812;8.562;2023-05-10T02:01:33;392.58;;;378.08;;
62332;SDS011;48624;49.812;8.562;2023-05-10T02:04:00;398.25;;;383.75;;
62332;SDS011;48624;49.812;8.562;2023-05-10T02:06:26;379.38;;;365.73;;
62332;SDS011;48624;49.812;8.562;2023-05-10T02:08:52;391.83;;;377.63;;
62332;SDS011;48624;49.812;8.562;2023-05-10T02:11:19;391.17;;;376.70;;
62332;SDS011;48624;49.812;8.562;2023-05-10T02:13:45;387.55;;;373.48;;
62332;SDS011;48624;49.812;8.562;2023-05-10T02:16:13;396.85;;;382.20;;
62332;SDS011;48624;49.812;8.562;2023-05-10T02:18:41;407.55;;;392.70;;
62332;SDS011;48624;49.812;8.562;2023-05-10T02:21:07;406.83;;;391.73;;
62332;SDS011;48624;49.812;8.562;2023-05-10T02:23:33;383.33;;;369.30;;
62332;SDS011;48624;49.812;8.562;2023-05-10T02:26:00;401.50;;;386.52;;
62332;SDS011;48624;49.812;8.562;2023-05-10T02:28:26;396.65;;;381.85;;
62332;SDS011;48624;49.812;8.562;2023-05-10T02:30:53;388.48;;;374.13;;
62332;SDS011;48624;49.812;8.562;2023-05-10T02:33:20;392.15;;;377.70;;
62332;SDS011;48624;49.812;8.562;2023-05-10T02:35:46;395.55;;;380.88;;
62332;SDS011;48624;49.812;8.562;2023-05-10T02:38:13;402.88;;;387.92;;
62332;SDS011;48624;49.812;8.562;2023-05-10T02:40:40;405.88;;;390.73;;
62332;SDS011;48624;49.812;8.562;2023-05-10T02:43:07;400.83;;;385.75;;
62332;SDS011;48624;49.812;8.562;2023-05-10T02:45:36;409.85;;;394.45;;
62332;SDS011;48624;49.812;8.562;2023-05-10T02:48:05;389.30;;;374.88;;
62332;SDS011;48624;49.812;8.562;2023-05-10T02:50:30;390.80;;;376.13;;
62332;SDS011;48624;49.812;8.562;2023-05-10T02:53:01;397.35;;;382.40;;
62332;SDS011;48624;49.812;8.562;2023-05-10T02:55:32;393.80;;;379.48;;
62332;SDS011;48624;49.812;8.562;2023-05-10T02:58:04;403.27;;;387.85;;
62332;SDS011;48624;49.812;8.562;2023-05-10T03:00:29;399.13;;;383.98;;
62332;SDS011;48624;49.812;8.562;2023-05-10T03:02:55;419.50;;;403.92;;
62332;SDS011;48624;49.812;8.562;2023-05-10T03:05:20;406.95;;;391.45;;
62332;SDS011;48624;49.812;8.562;2023-05-10T03:07:48;396.88;;;382.33;;
62332;SDS011;48624;49.812;8.562;2023-05-10T03:10:13;400.98;;;386.13;;
62332;SDS011;48624;49.812;8.562;2023-05-10T03:16:06;387.90;;;373.45;;
62332;SDS011;48624;49.812;8.562;2023-05-10T03:18:42;392.65;;;378.45;;
62332;SDS011;48624;49.812;8.562;2023-05-10T03:21:13;400.25;;;385.45;;
62332;SDS011;48624;49.812;8.562;2023-05-10T03:23:43;397.05;;;381.85;;
62332;SDS011;48624;49.812;8.562;2023-05-10T03:26:26;403.42;;;388.38;;
62332;SDS011;48624;49.812;8.562;2023-05-10T03:28:52;411.60;;;396.08;;
62332;SDS011;48624;49.812;8.562;2023-05-10T03:31:18;383.23;;;368.92;;
62332;SDS011;48624;49.812;8.562;2023-05-10T03:33:47;389.58;;;375.10;;
62332;SDS011;48624;49.812;8.562;2023-05-10T03:36:13;401.23;;;386.25;;
62332;SDS011;48624;49.812;8.562;2023-05-10T03:38:38;401.33;;;386.48;;
62332;SDS011;48624;49.812;8.562;2023-05-10T03:41:04;405.20;;;390.25;;
62332;SDS011;48624;49.812;8.562;2023-05-10T03:43:29;398.48;;;383.33;;
62332;SDS011;48624;49.812;8.562;2023-05-10T03:45:54;409.15;;;393.83;;
62332;SDS011;48624;49.812;8.562;2023-05-10T03:48:20;404.40;;;389.17;;
62332;SDS011;48624;49.812;8.562;2023-05-10T03:50:46;404.48;;;389.67;;
62332;SDS011;48624;49.812;8.562;2023-05-10T03:53:11;410.05;;;394.50;;
62332;SDS011;48624;49.812;8.562;2023-05-10T03:55:37;404.08;;;388.73;;
62332;SDS011;48624;49.812;8.562;2023-05-10T03:58:02;400.80;;;385.70;;
62332;SDS011;48624;49.812;8.562;2023-05-10T04:00:28;413.00;;;397.38;;
62332;SDS011;48624;49.812;8.562;2023-05-10T04:02:53;415.02;;;399.63;;
62332;SDS011;48624;49.812;8.562;2023-05-10T04:05:19;411.17;;;395.80;;
62332;SDS011;48624;49.812;8.562;2023-05-10T04:07:44;411.25;;;395.38;;
62332;SDS011;48624;49.812;8.562;2023-05-10T04:10:10;422.20;;;406.00;;
62332;SDS011;48624;49.812;8.562;2023-05-10T04:12:36;400.70;;;385.75;;
62332;SDS011;48624;49.812;8.562;2023-05-10T04:15:01;412.25;;;396.33;;
62332;SDS011;48624;49.812;8.562;2023-05-10T04:17:27;410.05;;;394.80;;
62332;SDS011;48624;49.812;8.562;2023-05-10T04:19:52;399.88;;;384.70;;
62332;SDS011;48624;49.812;8.562;2023-05-10T04:22:19;418.75;;;402.60;;
62332;SDS011;48624;49.812;8.562;2023-05-10T04:24:45;402.85;;;387.67;;
62332;SDS011;48624;49.812;8.562;2023-05-10T04:27:10;410.58;;;395.23;;
62332;SDS011;48624;49.812;8.562;2023-05-10T04:29:36;397.90;;;383.52;;
62332;SDS011;48624;49.812;8.562;2023-05-10T04:32:01;401.95;;;386.83;;
62332;SDS011;48624;49.812;8.562;2023-05-10T04:34:28;422.02;;;405.92;;
62332;SDS011;48624;49.812;8.562;2023-05-10T04:36:54;412.00;;;396.25;;
62332;SDS011;48624;49.812;8.562;2023-05-10T04:39:19;416.23;;;400.17;;
62332;SDS011;48624;49.812;8.562;2023-05-10T04:41:44;445.92;;;428.33;;
62332;SDS011;48624;49.812;8.562;2023-05-10T04:44:10;401.05;;;385.67;;
62332;SDS011;48624;49.812;8.562;2023-05-10T04:46:35;413.13;;;397.67;;
62332;SDS011;48624;49.812;8.562;2023-05-10T04:49:01;411.15;;;395.65;;
62332;SDS011;48624;49.812;8.562;2023-05-10T04:51:26;413.77;;;398.27;;
62332;SDS011;48624;49.812;8.562;2023-05-10T04:53:51;427.02;;;410.42;;
62332;SDS011;48624;49.812;8.562;2023-05-10T04:56:17;407.33;;;391.92;;
62332;SDS011;48624;49.812;8.562;2023-05-10T04:58:42;408.35;;;392.73;;
62332;SDS011;48624;49.812;8.562;2023-05-10T05:01:07;416.15;;;399.25;;
62332;SDS011;48624;49.812;8.562;2023-05-10T05:03:34;397.55;;;382.65;;
62332;SDS011;48624;49.812;8.562;2023-05-10T05:06:00;423.73;;;407.15;;
62332;SDS011;48624;49.812;8.562;2023-05-10T05:08:25;413.48;;;397.80;;
62332;SDS011;48624;49.812;8.562;2023-05-10T05:10:50;413.77;;;398.27;;
62332;SDS011;48624;49.812;8.562;2023-05-10T05:13:16;429.88;;;412.67;;
62332;SDS011;48624;49.812;8.562;2023-05-10T05:15:41;442.95;;;425.83;;
62332;SDS011;48624;49.812;8.562;2023-05-10T05:18:06;425.75;;;409.60;;
62332;SDS011;48624;49.812;8.562;2023-05-10T05:20:32;410.88;;;395.30;;
62332;SDS011;48624;49.812;8.562;2023-05-10T05:22:59;417.70;;;401.65;;
62332;SDS011;48624;49.812;8.562;2023-05-10T05:25:25;400.38;;;385.30;;
62332;SDS011;48624;49.812;8.562;2023-05-10T05:27:50;384.58;;;369.73;;
62332;SDS011;48624;49.812;8.562;2023-05-10T05:30:15;435.85;;;417.23;;
62332;SDS011;48624;49.812;8.562;2023-05-10T05:32:41;394.40;;;379.83;;
62332;SDS011;48624;49.812;8.562;2023-05-10T05:35:06;408.85;;;393.02;;
62332;SDS011;48624;49.812;8.562;2023-05-10T05:37:32;463.13;;;443.98;;
62332;SDS011;48624;49.812;8.562;2023-05-10T05:39:57;453.73;;;435.83;;
62332;SDS011;48624;49.812;8.562;2023-05-10T05:42:22;388.60;;;374.13;;
62332;SDS011;48624;49.812;8.562;2023-05-10T05:44:48;376.05;;;362.55;;
62332;SDS011;48624;49.812;8.562;2023-05-10T05:47:13;416.67;;;400.83;;
62332;SDS011;48624;49.812;8.562;2023-05-10T05:49:39;405.30;;;390.40;;
62332;SDS011;48624;49.812;8.562;2023-05-10T05:52:04;384.40;;;370.55;;
62332;SDS011;48624;49.812;8.562;2023-05-10T05:54:33;414.02;;;398.52;;
62332;SDS011;48624;49.812;8.562;2023-05-10T05:56:59;395.55;;;380.88;;
62332;SDS011;48624;49.812;8.562;2023-05-10T05:59:25;386.27;;;371.80;;
62332;SDS011;48624;49.812;8.562;2023-05-10T06:01:51;370.40;;;356.73;;
62332;SDS011;48624;49.812;8.562;2023-05-10T06:04:16;388.20;;;374.02;;
62332;SDS011;48624;49.812;8.562;2023-05-10T06:06:42;410.42;;;394.92;;
62332;SDS011;48624;49.812;8.562;2023-05-10T06:09:08;431.50;;;414.63;;
62332;SDS011;48624;49.812;8.562;2023-05-10T06:11:34;466.50;;;445.90;;
62332;SDS011;48624;49.812;8.562;2023-05-10T06:14:00;399.95;;;385.25;;
62332;SDS011;48624;49.812;8.562;2023-05-10T06:16:26;443.25;;;425.92;;
62332;SDS011;48624;49.812;8.562;2023-05-10T06:18:53;398.02;;;383.63;;
62332;SDS011;48624;49.812;8.562;2023-05-10T06:21:18;408.85;;;393.67;;
62332;SDS011;48624;49.812;8.562;2023-05-10T06:23:44;449.33;;;431.35;;
62332;SDS011;48624;49.812;8.562;2023-05-10T06:26:09;425.75;;;409.88;;
62332;SDS011;48624;49.812;8.562;2023-05-10T06:28:35;418.90;;;402.88;;
62332;SDS011;48624;49.812;8.562;2023-05-10T06:31:02;508.42;;;485.65;;
62332;SDS011;48624;49.812;8.562;2023-05-10T06:33:28;445.35;;;428.08;;
62332;SDS011;48624;49.812;8.562;2023-05-10T06:35:53;527.50;;;503.42;;
62332;SDS011;48624;49.812;8.562;2023-05-10T06:38:19;493.17;;;473.25;;
62332;SDS011;48624;49.812;8.562;2023-05-10T06:40:44;481.48;;;462.45;;
62332;SDS011;48624;49.812;8.562;2023-05-10T06:43:09;572.92;;;545.65;;
62332;SDS011;48624;49.812;8.562;2023-05-10T06:45:35;481.77;;;462.55;;
62332;SDS011;48624;49.812;8.562;2023-05-10T06:48:01;480.85;;;461.80;;
62332;SDS011;48624;49.812;8.562;2023-05-10T06:50:27;469.65;;;451.52;;
62332;SDS011;48624;49.812;8.562;2023-05-10T06:52:52;524.53;;;503.05;;
62332;SDS011;48624;49.812;8.562;2023-05-10T06:55:19;542.67;;;518.97;;
62332;SDS011;48624;49.812;8.562;2023-05-10T06:57:44;520.58;;;499.38;;
62332;SDS011;48624;49.812;8.562;2023-05-10T07:00:09;556.28;;;532.47;;
62332;SDS011;48624;49.812;8.562;2023-05-10T07:02:36;518.03;;;496.27;;
62332;SDS011;48624;49.812;8.562;2023-05-10T07:05:01;575.88;;;550.38;;
62332;SDS011;48624;49.812;8.562;2023-05-10T07:07:27;584.50;;;557.40;;
62332;SDS011;48624;49.812;8.562;2023-05-10T07:09:52;550.58;;;527.90;;
62332;SDS011;48624;49.812;8.562;2023-05-10T07:12:18;565.90;;;541.97;;
62332;SDS011;48624;49.812;8.562;2023-05-10T07:14:43;554.90;;;531.60;;
62332;SDS011;48624;49.812;8.562;2023-05-10T07:17:09;531.28;;;509.58;;
62332;SDS011;48624;49.812;8.562;2023-05-10T07:19:34;523.47;;;502.13;;
62332;SDS011;48624;49.812;8.562;2023-05-10T07:22:00;540.33;;;517.55;;
62332;SDS011;48624;49.812;8.562;2023-05-10T07:24:26;520.38;;;498.67;;
62332;SDS011;48624;49.812;8.562;2023-05-10T07:26:52;545.25;;;521.78;;
62332;SDS011;48624;49.812;8.562;2023-05-10T07:29:18;528.13;;;506.77;;
62332;SDS011;48624;49.812;8.562;2023-05-10T07:31:45;518.65;;;497.80;;
62332;SDS011;48624;49.812;8.562;2023-05-10T07:34:10;534.00;;;511.33;;
62332;SDS011;48624;49.812;8.562;2023-05-10T07:36:36;530.65;;;508.52;;
62332;SDS011;48624;49.812;8.562;2023-05-10T07:39:01;534.40;;;512.75;;
62332;SDS011;48624;49.812;8.562;2023-05-10T07:41:27;510.90;;;490.73;;
62332;SDS011;48624;49.812;8.562;2023-05-10T07:43:52;496.42;;;476.38;;
62332;SDS011;48624;49.812;8.562;2023-05-10T07:46:19;537.90;;;516.20;;
62332;SDS011;48624;49.812;8.562;2023-05-10T07:48:45;539.05;;;516.88;;
62332;SDS011;48624;49.812;8.562;2023-05-10T07:51:10;534.13;;;511.38;;
62332;SDS011;48624;49.812;8.562;2023-05-10T07:53:37;542.15;;;518.35;;
62332;SDS011;48624;49.812;8.562;2023-05-10T07:56:20;553.50;;;529.88;;
62332;SDS011;48624;49.812;8.562;2023-05-10T07:58:53;472.50;;;454.23;;
62332;SDS011;48624;49.812;8.562;2023-05-10T08:01:19;480.95;;;462.25;;
62332;SDS011;48624;49.812;8.562;2023-05-10T08:03:44;486.73;;;467.92;;
62332;SDS011;48624;49.812;8.562;2023-05-10T08:06:10;484.95;;;466.15;;
62332;SDS011;48624;49.812;8.562;2023-05-10T08:08:36;493.88;;;474.48;;
62332;SDS011;48624;49.812;8.562;2023-05-10T08:11:01;513.17;;;492.23;;
62332;SDS011;48624;49.812;8.562;2023-05-10T08:13:27;462.60;;;444.65;;
62332;SDS011;48624;49.812;8.562;2023-05-10T08:15:53;499.52;;;479.55;;
62332;SDS011;48624;49.812;8.562;2023-05-10T08:18:19;524.30;;;503.05;;
62332;SDS011;48624;49.812;8.562;2023-05-10T08:20:44;507.25;;;486.88;;
62332;SDS011;48624;49.812;8.562;2023-05-10T08:23:09;486.83;;;468.08;;
62332;SDS011;48624;49.812;8.562;2023-05-10T08:25:35;467.38;;;449.77;;
62332;SDS011;48624;49.812;8.562;2023-05-10T08:28:00;519.60;;;497.77;;
62332;SDS011;48624;49.812;8.562;2023-05-10T08:30:25;491.63;;;471.83;;
62332;SDS011;48624;49.812;8.562;2023-05-10T08:32:51;545.58;;;522.55;;
62332;SDS011;48624;49.812;8.562;2023-05-10T08:35:16;500.15;;;480.55;;
62332;SDS011;48624;49.812;8.562;2023-05-10T08:37:41;519.08;;;498.25;;
62332;SDS011;48624;49.812;8.562;2023-05-10T08:40:07;508.15;;;486.88;;
62332;SDS011;48624;49.812;8.562;2023-05-10T08:42:36;535.88;;;513.92;;
62332;SDS011;48624;49.812;8.562;2023-05-10T08:45:05;548.55;;;526.15;;
62332;SDS011;48624;49.812;8.562;2023-05-10T08:47:32;557.72;;;533.97;;
62332;SDS011;48624;49.812;8.562;2023-05-10T08:49:58;510.08;;;489.80;;
62332;SDS011;48624;49.812;8.562;2023-05-10T08:52:25;506.25;;;486.27;;
62332;SDS011;48624;49.812;8.562;2023-05-10T08:54:52;511.70;;;491.45;;
62332;SDS011;48624;49.812;8.562;2023-05-10T08:57:18;552.53;;;528.90;;
62332;SDS011;48624;49.812;8.562;2023-05-10T08:59:44;554.38;;;531.25;;
62332;SDS011;48624;49.812;8.562;2023-05-10T09:02:09;428.52;;;412.48;;
62332;SDS011;48624;49.812;8.562;2023-05-10T09:04:36;433.58;;;417.45;;
62332;SDS011;48624;49.812;8.562;2023-05-10T09:07:02;507.30;;;487.23;;
62332;SDS011;48624;49.812;8.562;2023-05-10T09:09:28;457.05;;;439.42;;
62332;SDS011;48624;49.812;8.562;2023-05-10T09:11:54;471.70;;;453.75;;
62332;SDS011;48624;49.812;8.562;2023-05-10T09:14:19;558.08;;;535.13;;
62332;SDS011;48624;49.812;8.562;2023-05-10T09:16:45;400.30;;;385.73;;
62332;SDS011;48624;49.812;8.562;2023-05-10T09:19:11;522.53;;;501.75;;
62332;SDS011;48624;49.812;8.562;2023-05-10T09:21:37;562.17;;;538.33;;
62332;SDS011;48624;49.812;8.562;2023-05-10T09:24:06;525.72;;;503.67;;
62332;SDS011;48624;49.812;8.562;2023-05-10T09:26:35;430.23;;;414.40;;
62332;SDS011;48624;49.812;8.562;2023-05-10T09:29:01;437.02;;;420.90;;
62332;SDS011;48624;49.812;8.562;2023-05-10T09:34:29;403.05;;;388.38;;
62332;SDS011;48624;49.812;8.562;2023-05-10T09:36:57;513.28;;;492.90;;
62332;SDS011;48624;49.812;8.562;2023-05-10T09:39:35;566.35;;;542.17;;
62332;SDS011;48624;49.812;8.562;2023-05-10T09:42:02;580.55;;;555.22;;
62332;SDS011;48624;49.812;8.562;2023-05-10T09:44:31;493.08;;;474.08;;
62332;SDS011;48624;49.812;8.562;2023-05-10T09:46:57;606.50;;;577.38;;
62332;SDS011;48624;49.812;8.562;2023-05-10T09:49:23;415.67;;;400.40;;
62332;SDS011;48624;49.812;8.562;2023-05-10T09:52:01;399.90;;;385.83;;
62332;SDS011;48624;49.812;8.562;2023-05-10T09:54:29;445.45;;;425.38;;
62332;SDS011;48624;49.812;8.562;2023-05-10T09:56:54;519.65;;;495.73;;
62332;SDS011;48624;49.812;8.562;2023-05-10T09:59:20;346.40;;;334.58;;
62332;SDS011;48624;49.812;8.562;2023-05-10T10:01:51;412.27;;;394.98;;
62332;SDS011;48624;49.812;8.562;2023-05-10T10:04:17;392.73;;;378.02;;
62332;SDS011;48624;49.812;8.562;2023-05-10T10:06:45;321.83;;;309.95;;
62332;SDS011;48624;49.812;8.562;2023-05-10T10:09:10;378.58;;;365.00;;
62332;SDS011;48624;49.812;8.562;2023-05-10T10:11:36;400.38;;;384.27;;
62332;SDS011;48624;49.812;8.562;2023-05-10T10:14:03;378.27;;;365.00;;
62332;SDS011;48624;49.812;8.562;2023-05-10T10:16:29;359.55;;;347.20;;
62332;SDS011;48624;49.812;8.562;2023-05-10T10:18:55;401.50;;;387.10;;
62332;SDS011;48624;49.812;8.562;2023-05-10T10:21:22;348.83;;;335.77;;
62332;SDS011;48624;49.812;8.562;2023-05-10T10:23:47;314.88;;;304.02;;
62332;SDS011;48624;49.812;8.562;2023-05-10T10:26:13;328.80;;;317.27;;
62332;SDS011;48624;49.812;8.562;2023-05-10T10:28:49;339.25;;;326.42;;
62332;SDS011;48624;49.812;8.562;2023-05-10T10:34:11;334.38;;;321.85;;
62332;SDS011;48624;49.812;8.562;2023-05-10T10:36:52;276.17;;;266.58;;
62332;SDS011;48624;49.812;8.562;2023-05-10T10:39:19;226.98;;;219.32;;
62332;SDS011;48624;49.812;8.562;2023-05-10T10:47:39;350.13;;;337.95;;
62332;SDS011;48624;49.812;8.562;2023-05-10T11:02:45;330.58;;;318.33;;
62332;SDS011;48624;49.812;8.562;2023-05-10T11:07:54;226.50;;;218.38;;
62332;SDS011;48624;49.812;8.562;2023-05-10T11:10:24;91.30;;;88.32;;
62332;SDS011;48624;49.812;8.562;2023-05-10T11:13:11;140.18;;;133.88;;
62332;SDS011;48624;49.812;8.562;2023-05-10T11:15:39;101.15;;;97.93;;
62332;SDS011;48624;49.812;8.562;2023-05-10T11:18:19;91.53;;;88.57;;
62332;SDS011;48624;49.812;8.562;2023-05-10T11:20:59;13.18;;;12.75;;
62332;SDS011;48624;49.812;8.562;2023-05-10T11:23:32;16.70;;;15.60;;
62332;SDS011;48624;49.812;8.562;2023-05-10T11:26:12;19.13;;;18.48;;
62332;SDS011;48624;49.812;8.562;2023-05-10T11:28:44;22.17;;;21.15;;
62332;SDS011;48624;49.812;8.562;2023-05-10T11:31:13;11.55;;;11.15;;
62332;SDS011;48624;49.812;8.562;2023-05-10T11:33:46;13.43;;;12.73;;
62332;SDS011;48624;49.812;8.562;2023-05-10T11:36:25;26.40;;;25.42;;
62332;SDS011;48624;49.812;8.562;2023-05-10T11:38:52;31.67;;;30.67;;
62332;SDS011;48624;49.812;8.562;2023-05-10T11:41:18;10.43;;;9.93;;
62332;SDS011;48624;49.812;8.562;2023-05-10T11:43:52;7.30;;;7.00;;
62332;SDS011;48624;49.812;8.562;2023-05-10T11:46:19;0.38;;;0.35;;
62332;SDS011;48624;49.812;8.562;2023-05-10T11:48:49;2.75;;;2.65;;
62332;SDS011;48624;49.812;8.562;2023-05-10T11:51:22;11.15;;;10.85;;
62332;SDS011;48624;49.812;8.562;2023-05-10T11:53:50;12.98;;;12.55;;
62332;SDS011;48624;49.812;8.562;2023-05-10T11:56:17;8.65;;;8.30;;
62332;SDS011;48624;49.812;8.562;2023-05-10T11:58:43;46.50;;;44.80;;
62332;SDS011;48624;49.812;8.562;2023-05-10T12:01:08;45.67;;;44.00;;
62332;SDS011;48624;49.812;8.562;2023-05-10T12:03:35;34.90;;;33.78;;
62332;SDS011;48624;49.812;8.562;2023-05-10T12:06:01;26.85;;;25.92;;
62332;SDS011;48624;49.812;8.562;2023-05-10T12:08:28;18.85;;;18.23;;
62332;SDS011;48624;49.812;8.562;2023-05-10T12:11:03;10.93;;;10.52;;
62332;SDS011;48624;49.812;8.562;2023-05-10T12:13:30;22.73;;;22.00;;
62332;SDS011;48624;49.812;8.562;2023-05-10T12:15:59;23.20;;;22.30;;
62332;SDS011;48624;49.812;8.562;2023-05-10T12:18:24;22.50;;;21.77;;
62332;SDS011;48624;49.812;8.562;2023-05-10T12:20:53;13.90;;;13.40;;
62332;SDS011;48624;49.812;8.562;2023-05-10T12:23:18;12.73;;;12.27;;
62332;SDS011;48624;49.812;8.562;2023-05-10T12:25:45;4.65;;;4.45;;
62332;SDS011;48624;49.812;8.562;2023-05-10T12:28:12;2.35;;;2.25;;
62332;SDS011;48624;49.812;8.562;2023-05-10T12:30:38;4.40;;;3.35;;
62332;SDS011;48624;49.812;8.562;2023-05-10T12:35:38;16.35;;;15.85;;
62332;SDS011;48624;49.812;8.562;2023-05-10T12:38:29;2.90;;;2.15;;
62332;SDS011;48624;49.812;8.562;2023-05-10T12:40:56;2.70;;;2.35;;
62332;SDS011;48624;49.812;8.562;2023-05-10T12:43:22;1.33;;;1.10;;
62332;SDS011;48624;49.812;8.562;2023-05-10T12:45:47;2.00;;;1.13;;
62332;SDS011;48624;49.812;8.562;2023-05-10T12:48:14;7.18;;;6.85;;
62332;SDS011;48624;49.812;8.562;2023-05-10T12:50:42;16.65;;;15.82;;
62332;SDS011;48624;49.812;8.562;2023-05-10T12:53:07;2.28;;;1.85;;
62332;SDS011;48624;49.812;8.562;2023-05-10T12:55:33;26.42;;;25.55;;
62332;SDS011;48624;49.812;8.562;2023-05-10T12:57:58;16.75;;;16.02;;
62332;SDS011;48624;49.812;8.562;2023-05-10T13:00:25;78.82;;;75.65;;
62332;SDS011;48624;49.812;8.562;2023-05-10T13:02:50;204.30;;;197.63;;
62332;SDS011;48624;49.812;8.562;2023-05-10T13:05:16;176.13;;;170.05;;
62332;SDS011;48624;49.812;8.562;2023-05-10T13:07:41;204.43;;;197.00;;
62332;SDS011;48624;49.812;8.562;2023-05-10T13:10:08;208.32;;;201.32;;
62332;SDS011;48624;49.812;8.562;2023-05-10T13:12:36;154.77;;;149.65;;
62332;SDS011;48624;49.812;8.562;2023-05-10T13:15:01;52.85;;;50.80;;
62332;SDS011;48624;49.812;8.562;2023-05-10T13:17:28;10.73;;;9.98;;
62332;SDS011;48624;49.812;8.562;2023-05-10T13:19:53;8.77;;;8.38;;
62332;SDS011;48624;49.812;8.562;2023-05-10T13:22:19;3.33;;;3.13;;
62332;SDS011;48624;49.812;8.562;2023-05-10T13:24:46;1.15;;;1.15;;
62332;SDS011;48624;49.812;8.562;2023-05-10T13:27:12;1.35;;;1.30;;
62332;SDS011;48624;49.812;8.562;2023-05-10T13:29:38;2.88;;;0.80;;
62332;SDS011;48624;49.812;8.562;2023-05-10T13:32:03;1.63;;;1.20;;
62332;SDS011;48624;49.812;8.562;2023-05-10T13:34:29;1.95;;;0.60;;
62332;SDS011;48624;49.812;8.562;2023-05-10T13:36:54;2.20;;;0.50;;
62332;SDS011;48624;49.812;8.562;2023-05-10T13:39:21;1.35;;;0.50;;
62332;SDS011;48624;49.812;8.562;2023-05-10T13:41:46;0.60;;;0.50;;
62332;SDS011;48624;49.812;8.562;2023-05-10T13:44:12;2.95;;;0.68;;
62332;SDS011;48624;49.812;8.562;2023-05-10T13:46:39;2.60;;;1.00;;
62332;SDS011;48624;49.812;8.562;2023-05-10T13:49:04;1.33;;;0.80;;
62332;SDS011;48624;49.812;8.562;2023-05-10T13:51:30;2.35;;;0.77;;
62332;SDS011;48624;49.812;8.562;2023-05-10T13:53:56;3.58;;;1.33;;
62332;SDS011;48624;49.812;8.562;2023-05-10T13:56:22;0.98;;;0.88;;
62332;SDS011;48624;49.812;8.562;2023-05-10T13:58:47;3.00;;;1.52;;
62332;SDS011;48624;49.812;8.562;2023-05-10T14:01:13;2.67;;;1.00;;
62332;SDS011;48624;49.812;8.562;2023-05-10T14:03:38;4.47;;;1.02;;
62332;SDS011;48624;49.812;8.562;2023-05-10T14:06:03;1.52;;;0.82;;
62332;SDS011;48624;49.812;8.562;2023-05-10T14:08:29;1.65;;;1.55;;
62332;SDS011;48624;49.812;8.562;2023-05-10T14:10:55;1.13;;;0.60;;
62332;SDS011;48624;49.812;8.562;2023-05-10T14:13:23;2.45;;;1.10;;
62332;SDS011;48624;49.812;8.562;2023-05-10T14:15:48;1.38;;;0.63;;
62332;SDS011;48624;49.812;8.562;2023-05-10T14:18:13;2.42;;;0.90;;
62332;SDS011;48624;49.812;8.562;2023-05-10T14:20:39;3.42;;;0.70;;
62332;SDS011;48624;49.812;8.562;2023-05-10T14:23:05;1.45;;;0.57;;
62332;SDS011;48624;49.812;8.562;2023-05-10T14:25:30;4.20;;;0.82;;
62332;SDS011;48624;49.812;8.562;2023-05-10T14:27:56;1.13;;;0.40;;
62332;SDS011;48624;49.812;8.562;2023-05-10T14:30:22;0.73;;;0.38;;
62332;SDS011;48624;49.812;8.562;2023-05-10T14:32:47;2.88;;;0.45;;
62332;SDS011;48624;49.812;8.562;2023-05-10T14:35:12;3.47;;;0.70;;
62332;SDS011;48624;49.812;8.562;2023-05-10T14:37:38;1.23;;;0.50;;
62332;SDS011;48624;49.812;8.562;2023-05-10T14:40:03;1.13;;;0.30;;
62332;SDS011;48624;49.812;8.562;2023-05-10T14:42:29;0.70;;;0.52;;
62332;SDS011;48624;49.812;8.562;2023-05-10T14:44:54;0.55;;;0.50;;
62332;SDS011;48624;49.812;8.562;2023-05-10T14:47:19;2.45;;;1.27;;
62332;SDS011;48624;49.812;8.562;2023-05-10T14:49:45;1.52;;;0.40;;
62332;SDS011;48624;49.812;8.562;2023-05-10T14:52:10;2.70;;;0.70;;
62332;SDS011;48624;49.812;8.562;2023-05-10T14:54:37;0.90;;;0.50;;
62332;SDS011;48624;49.812;8.562;2023-05-10T14:57:02;3.47;;;0.52;;